createdAt,value
2019-05-11T00:01:01.993Z,99.90
2019-05-11T00:03:30.641Z,99.90
2019-05-11T00:05:59.403Z,99.90
2019-05-11T00:08:28.116Z,99.90
2019-05-11T00:10:56.895Z,99.90
2019-05-11T00:13:25.705Z,99.90
2019-05-11T00:15:54.385Z,99.90
2019-05-11T00:18:23.109Z,99.90
2019-05-11T00:20:51.751Z,99.90
2019-05-11T00:23:20.527Z,99.90
2019-05-11T00:25:49.253Z,99.90
2019-05-11T00:28:18.023Z,99.90
2019-05-11T00:30:46.713Z,99.90
2019-05-11T00:33:15.483Z,99.90
2019-05-11T00:35:44.204Z,99.90
2019-05-11T00:38:12.983Z,99.90
2019-05-11T00:40:41.627Z,99.90
2019-05-11T00:43:10.430Z,99.90
2019-05-11T00:45:39.219Z,99.90
2019-05-11T00:48:08.009Z,99.90
2019-05-11T00:50:39.796Z,99.90
2019-05-11T00:53:07.314Z,99.90
2019-05-11T00:55:36.145Z,99.90
2019-05-11T00:58:05.001Z,99.90
2019-05-11T01:00:33.847Z,99.90
2019-05-11T01:03:02.652Z,99.90
2019-05-11T01:05:31.379Z,99.90
2019-05-11T01:08:00.232Z,99.90
2019-05-11T01:10:41.201Z,99.90
2019-05-11T01:12:59.481Z,99.90
2019-05-11T01:15:28.296Z,99.90
2019-05-11T01:17:56.943Z,99.90
2019-05-11T01:20:25.817Z,99.90
2019-05-11T01:22:54.497Z,99.90
2019-05-11T01:25:23.298Z,99.90
2019-05-11T01:27:51.952Z,99.90
2019-05-11T01:30:21.094Z,99.90
2019-05-11T01:32:49.819Z,99.90
2019-05-11T01:35:18.591Z,99.90
2019-05-11T01:37:47.445Z,99.90
2019-05-11T01:40:16.391Z,99.90
2019-05-11T01:42:45.097Z,99.90
2019-05-11T01:45:14.119Z,99.90
2019-05-11T01:47:42.877Z,99.90
2019-05-11T01:50:11.810Z,99.90
2019-05-11T01:52:40.482Z,99.90
2019-05-11T01:55:09.493Z,99.90
2019-05-11T01:57:38.273Z,99.90
2019-05-11T02:00:08.168Z,99.90
2019-05-11T02:02:37.386Z,99.90
2019-05-11T02:05:20.926Z,99.90
2019-05-11T02:07:49.674Z,99.90
2019-05-11T02:10:18.619Z,99.90
2019-05-11T02:12:47.303Z,99.90
2019-05-11T02:15:16.058Z,99.90
2019-05-11T02:17:44.729Z,99.90
2019-05-11T02:20:13.774Z,99.90
2019-05-11T02:22:42.509Z,99.90
2019-05-11T02:25:11.284Z,99.90
2019-05-11T02:27:40.044Z,99.90
2019-05-11T02:30:09.829Z,99.90
2019-05-11T02:32:38.638Z,99.90
2019-05-11T02:35:07.737Z,99.90
2019-05-11T02:37:36.495Z,99.90
2019-05-11T02:40:06.664Z,99.90
2019-05-11T02:42:35.871Z,99.90
2019-05-11T02:45:06.361Z,99.90
2019-05-11T02:47:35.078Z,99.90
2019-05-11T02:50:04.391Z,99.90
2019-05-11T02:52:34.846Z,99.90
2019-05-11T02:55:04.352Z,99.90
2019-05-11T02:57:33.098Z,99.90
2019-05-11T03:00:01.841Z,99.90
2019-05-11T03:02:30.751Z,99.90
2019-05-11T03:04:59.420Z,99.90
2019-05-11T03:07:28.041Z,99.90
2019-05-11T03:09:56.789Z,99.90
2019-05-11T03:12:25.457Z,99.90
2019-05-11T03:14:54.070Z,99.90
2019-05-11T03:17:24.408Z,99.90
2019-05-11T03:19:53.043Z,99.90
2019-05-11T03:22:21.801Z,99.90
2019-05-11T03:24:50.470Z,99.90
2019-05-11T03:27:19.289Z,99.90
2019-05-11T03:29:48.017Z,99.90
2019-05-11T03:32:16.637Z,99.90
2019-05-11T03:34:45.437Z,99.90
2019-05-11T03:37:14.179Z,99.90
2019-05-11T03:39:43.020Z,99.90
2019-05-11T03:42:14.730Z,99.90
2019-05-11T03:44:42.117Z,99.90
2019-05-11T03:47:10.855Z,99.90
2019-05-11T03:49:39.586Z,99.90
2019-05-11T03:52:08.321Z,99.90
2019-05-11T03:54:37.061Z,99.90
2019-05-11T03:57:05.755Z,99.90
2019-05-11T03:59:34.586Z,99.90
2019-05-11T04:02:03.471Z,99.90
2019-05-11T04:04:32.145Z,99.90
2019-05-11T04:07:00.828Z,99.90
2019-05-11T04:09:29.513Z,99.90
2019-05-11T04:11:58.253Z,99.90
2019-05-11T04:14:27.017Z,99.90
2019-05-11T04:16:55.803Z,99.90
2019-05-11T04:19:24.604Z,99.90
2019-05-11T04:21:53.258Z,99.90
2019-05-11T04:24:21.999Z,99.90
2019-05-11T04:26:50.760Z,99.90
2019-05-11T04:29:19.508Z,99.90
2019-05-11T04:31:48.187Z,99.90
2019-05-11T04:34:16.859Z,99.90
2019-05-11T04:36:45.608Z,99.90
2019-05-11T04:39:14.275Z,99.90
2019-05-11T04:41:42.960Z,99.90
2019-05-11T04:44:11.637Z,99.90
2019-05-11T04:46:40.333Z,99.90
2019-05-11T04:49:09.020Z,99.90
2019-05-11T04:51:37.774Z,99.90
2019-05-11T04:54:06.585Z,99.90
2019-05-11T04:56:35.203Z,99.90
2019-05-11T04:59:03.895Z,99.90
2019-05-11T05:01:32.777Z,99.90
2019-05-11T05:04:13.465Z,99.90
2019-05-11T05:06:31.742Z,99.90
2019-05-11T05:09:03.735Z,99.90
2019-05-11T05:11:36.513Z,99.90
2019-05-11T05:14:02.120Z,99.90
2019-05-11T05:16:31.790Z,99.90
2019-05-11T05:19:00.431Z,99.90
2019-05-11T05:21:29.169Z,99.90
2019-05-11T05:23:57.935Z,99.90
2019-05-11T05:26:26.733Z,99.90
2019-05-11T05:28:55.417Z,99.90
2019-05-11T05:31:24.169Z,99.90
2019-05-11T05:33:52.833Z,99.90
2019-05-11T05:36:21.516Z,99.90
2019-05-11T05:38:50.444Z,99.90
2019-05-11T05:41:19.122Z,99.90
2019-05-11T05:43:47.855Z,99.90
2019-05-11T05:46:16.524Z,99.90
2019-05-11T05:48:45.316Z,99.90
2019-05-11T05:51:14.152Z,99.90
2019-05-11T05:53:42.763Z,99.90
2019-05-11T05:56:11.539Z,99.90
2019-05-11T05:58:40.288Z,99.90
2019-05-11T06:01:10.248Z,99.90
2019-05-11T06:03:39.351Z,99.90
2019-05-11T06:06:08.388Z,99.90
2019-05-11T06:08:37.149Z,99.90
2019-05-11T06:11:06.085Z,99.90
2019-05-11T06:13:44.510Z,99.90
2019-05-11T06:16:05.252Z,99.90
2019-05-11T06:18:33.997Z,99.90
2019-05-11T06:21:02.612Z,99.90
2019-05-11T06:23:31.430Z,99.90
2019-05-11T06:26:00.275Z,99.90
2019-05-11T06:28:28.967Z,99.90
2019-05-11T06:30:57.676Z,99.90
2019-05-11T06:33:26.448Z,99.90
2019-05-11T06:35:55.174Z,99.90
2019-05-11T06:38:23.860Z,99.90
2019-05-11T06:40:52.528Z,99.90
2019-05-11T06:43:21.181Z,99.90
2019-05-11T06:45:49.922Z,99.90
2019-05-11T06:48:18.538Z,99.90
2019-05-11T06:50:47.277Z,99.90
2019-05-11T06:53:16.058Z,99.90
2019-05-11T06:55:44.746Z,99.90
2019-05-11T06:58:13.417Z,99.90
2019-05-11T07:00:42.114Z,99.90
2019-05-11T07:03:10.928Z,99.90
2019-05-11T07:05:39.604Z,99.90
2019-05-11T07:08:08.661Z,99.90
2019-05-11T07:10:37.484Z,99.90
2019-05-11T07:13:06.288Z,99.90
2019-05-11T07:15:34.911Z,99.90
2019-05-11T07:18:03.887Z,99.90
2019-05-11T07:20:32.660Z,99.90
2019-05-11T07:23:01.446Z,99.90
2019-05-11T07:25:30.308Z,99.90
2019-05-11T07:28:00.945Z,99.90
2019-05-11T07:30:29.632Z,99.90
2019-05-11T07:33:01.038Z,99.90
2019-05-11T07:35:28.752Z,99.90
2019-05-11T07:37:58.159Z,99.90
2019-05-11T07:40:27.953Z,99.90
2019-05-11T07:42:58.971Z,99.90
2019-05-11T07:45:28.372Z,99.90
2019-05-11T07:47:58.974Z,99.90
2019-05-11T07:50:28.460Z,99.90
2019-05-11T07:52:58.865Z,99.90
2019-05-11T07:55:28.301Z,99.90
2019-05-11T07:57:58.603Z,99.90
2019-05-11T08:00:28.144Z,99.90
2019-05-11T08:02:58.480Z,99.90
2019-05-11T08:05:28.409Z,99.90
2019-05-11T08:07:59.286Z,99.90
2019-05-11T08:10:28.257Z,99.90
2019-05-11T08:12:58.755Z,99.90
2019-05-11T08:15:28.366Z,99.90
2019-05-11T08:17:57.974Z,99.90
2019-05-11T08:20:28.374Z,99.90
2019-05-11T08:22:58.708Z,99.90
2019-05-11T08:25:28.706Z,99.90
2019-05-11T08:27:58.811Z,99.90
2019-05-11T08:30:27.984Z,99.90
2019-05-11T08:32:58.240Z,99.90
2019-05-11T08:35:31.339Z,99.90
2019-05-11T08:38:00.373Z,99.90
2019-05-11T08:40:29.243Z,99.90
2019-05-11T08:42:58.409Z,99.90
2019-05-11T08:45:28.118Z,99.90
2019-05-11T08:47:57.909Z,99.90
2019-05-11T08:50:28.176Z,99.90
2019-05-11T08:52:58.315Z,99.90
2019-05-11T08:55:28.960Z,99.90
2019-05-11T08:57:58.589Z,99.90
2019-05-11T09:00:28.656Z,99.90
2019-05-11T09:03:00.101Z,99.90
2019-05-11T09:05:33.169Z,99.90
2019-05-11T09:08:01.982Z,99.90
2019-05-11T09:10:30.775Z,99.90
2019-05-11T09:12:59.748Z,99.90
2019-05-11T09:15:36.430Z,99.90
2019-05-11T09:17:58.997Z,99.90
2019-05-11T09:20:28.491Z,99.90
2019-05-11T09:22:59.129Z,99.90
2019-05-11T09:25:28.196Z,99.90
2019-05-11T09:27:58.744Z,99.90
2019-05-11T09:30:28.797Z,99.90
2019-05-11T09:32:58.914Z,99.90
2019-05-11T09:35:29.258Z,99.90
2019-05-11T09:37:58.767Z,99.90
2019-05-11T09:40:28.364Z,99.90
2019-05-11T09:42:58.512Z,99.90
2019-05-11T09:45:27.839Z,99.90
2019-05-11T09:47:58.183Z,99.90
2019-05-11T09:50:28.324Z,99.90
2019-05-11T09:52:58.069Z,99.90
2019-05-11T09:55:28.315Z,99.90
2019-05-11T09:57:57.983Z,99.90
2019-05-11T10:00:28.241Z,99.90
2019-05-11T10:02:57.790Z,99.90
2019-05-11T10:05:28.676Z,99.90
2019-05-11T10:07:58.904Z,99.90
2019-05-11T10:10:28.909Z,99.90
2019-05-11T10:12:59.063Z,99.90
2019-05-11T10:15:28.120Z,99.90
2019-05-11T10:17:58.818Z,99.90
2019-05-11T10:20:28.647Z,99.90
2019-05-11T10:22:58.008Z,99.90
2019-05-11T10:25:28.700Z,99.90
2019-05-11T10:27:58.019Z,99.90
2019-05-11T10:30:28.048Z,99.90
2019-05-11T10:32:57.798Z,99.90
2019-05-11T10:35:28.878Z,99.90
2019-05-11T10:37:58.345Z,99.90
2019-05-11T10:40:28.144Z,99.90
2019-05-11T10:42:58.923Z,99.90
2019-05-11T10:45:28.493Z,99.90
2019-05-11T10:48:00.772Z,99.90
2019-05-11T10:50:28.766Z,99.90
2019-05-11T10:52:59.020Z,99.90
2019-05-11T10:55:28.114Z,99.90
2019-05-11T10:57:58.092Z,99.90
2019-05-11T11:00:28.248Z,99.90
2019-05-11T11:02:58.123Z,99.90
2019-05-11T11:05:27.919Z,99.90
2019-05-11T11:07:58.871Z,99.90
2019-05-11T11:10:28.598Z,99.90
2019-05-11T11:12:57.928Z,99.90
2019-05-11T11:15:28.828Z,99.90
2019-05-11T11:17:57.925Z,99.90
2019-05-11T11:20:27.976Z,99.90
2019-05-11T11:22:58.373Z,99.90
2019-05-11T11:25:28.374Z,99.90
2019-05-11T11:27:57.912Z,99.90
2019-05-11T11:30:28.647Z,99.90
2019-05-11T11:32:58.737Z,99.90
2019-05-11T11:35:28.002Z,99.90
2019-05-11T11:37:58.432Z,99.90
2019-05-11T11:40:28.184Z,99.90
2019-05-11T11:42:58.087Z,99.90
2019-05-11T11:45:28.808Z,99.90
2019-05-11T11:47:58.011Z,99.90
2019-05-11T11:50:28.366Z,99.90
2019-05-11T11:52:57.904Z,99.90
2019-05-11T11:55:29.046Z,99.90
2019-05-11T11:57:58.828Z,99.90
2019-05-11T12:00:28.848Z,99.90
2019-05-11T12:02:58.132Z,99.90
2019-05-11T12:05:28.270Z,99.90
2019-05-11T12:07:57.982Z,99.90
2019-05-11T12:10:28.722Z,99.90
2019-05-11T12:12:58.162Z,99.90
2019-05-11T12:15:28.233Z,99.90
2019-05-11T12:17:58.773Z,99.90
2019-05-11T12:20:28.666Z,99.90
2019-05-11T12:22:58.215Z,99.90
2019-05-11T12:25:27.793Z,99.90
2019-05-11T12:27:57.780Z,99.90
2019-05-11T12:30:28.485Z,99.90
2019-05-11T12:32:57.708Z,99.90
2019-05-11T12:35:28.435Z,99.90
2019-05-11T12:37:58.723Z,99.90
2019-05-11T12:40:28.384Z,99.90
2019-05-11T12:42:59.091Z,99.90
2019-05-11T12:45:29.569Z,99.90
2019-05-11T12:47:58.684Z,99.90
2019-05-11T12:50:28.600Z,99.90
2019-05-11T12:52:58.846Z,99.90
2019-05-11T12:55:28.653Z,99.90
2019-05-11T12:57:58.073Z,99.90
2019-05-11T13:00:47.976Z,99.90
2019-05-11T13:03:18.633Z,99.90
2019-05-11T13:05:48.385Z,99.90
2019-05-11T13:08:18.429Z,99.90
2019-05-11T13:10:47.899Z,99.90
2019-05-11T13:13:18.164Z,99.90
2019-05-11T13:15:47.908Z,99.90
2019-05-11T13:18:18.579Z,99.90
2019-05-11T13:20:48.233Z,99.90
2019-05-11T13:23:18.539Z,99.90
2019-05-11T13:25:48.057Z,99.90
2019-05-11T13:28:17.922Z,99.90
2019-05-11T13:30:48.794Z,99.90
2019-05-11T13:33:18.975Z,99.90
2019-05-11T13:35:48.225Z,99.90
2019-05-11T13:38:17.832Z,99.90
2019-05-11T13:40:48.786Z,99.90
2019-05-11T13:43:18.799Z,99.90
2019-05-11T13:45:47.992Z,99.90
2019-05-11T13:48:17.681Z,99.90
2019-05-11T13:50:47.974Z,99.90
2019-05-11T13:53:18.377Z,99.90
2019-05-11T13:55:48.066Z,99.90
2019-05-11T13:58:19.817Z,99.90
2019-05-11T14:00:48.114Z,99.90
2019-05-11T14:03:18.446Z,99.90
2019-05-11T14:05:48.320Z,99.90
2019-05-11T14:08:18.551Z,99.90
2019-05-11T14:10:48.807Z,99.90
2019-05-11T14:13:18.306Z,99.90
2019-05-11T14:15:48.155Z,99.90
2019-05-11T14:18:18.119Z,99.90
2019-05-11T14:20:48.309Z,99.90
2019-05-11T14:23:18.275Z,99.90
2019-05-11T14:25:48.671Z,99.90
2019-05-11T14:28:18.116Z,99.90
2019-05-11T14:30:48.632Z,99.90
2019-05-11T14:33:18.095Z,99.90
2019-05-11T14:35:48.965Z,99.90
2019-05-11T14:38:18.828Z,99.90
2019-05-11T14:40:48.102Z,99.90
2019-05-11T14:43:18.817Z,99.90
2019-05-11T14:45:48.624Z,99.90
2019-05-11T14:48:25.962Z,99.90
2019-05-11T14:50:48.896Z,99.90
2019-05-11T14:53:18.060Z,99.90
2019-05-11T14:55:48.797Z,99.90
2019-05-11T14:58:19.859Z,99.90
2019-05-11T15:00:49.163Z,99.90
2019-05-11T15:03:19.849Z,99.90
2019-05-11T15:05:48.536Z,99.90
2019-05-11T15:08:18.039Z,99.90
2019-05-11T15:10:48.797Z,99.90
2019-05-11T15:13:18.531Z,99.90
2019-05-11T15:15:48.784Z,99.90
2019-05-11T15:18:17.795Z,99.90
2019-05-11T15:20:47.942Z,99.90
2019-05-11T15:23:18.073Z,99.90
2019-05-11T15:25:48.772Z,99.90
2019-05-11T15:28:19.298Z,99.90
2019-05-11T15:30:48.443Z,99.90
2019-05-11T15:33:18.308Z,99.90
2019-05-11T15:35:47.881Z,99.90
2019-05-11T15:38:17.881Z,99.90
2019-05-11T15:40:48.748Z,99.90
2019-05-11T15:43:17.946Z,99.90
2019-05-11T15:45:48.701Z,99.90
2019-05-11T15:48:19.369Z,99.90
2019-05-11T15:50:48.702Z,99.90
2019-05-11T15:53:17.992Z,99.90
2019-05-11T15:55:47.063Z,99.90
2019-05-11T15:58:21.466Z,99.90
2019-05-11T16:00:48.377Z,99.90
2019-05-11T16:03:18.616Z,99.90
2019-05-11T16:05:47.887Z,99.90
2019-05-11T16:08:18.801Z,99.90
2019-05-11T16:10:48.859Z,99.60
2019-05-11T16:13:18.200Z,99.40
2019-05-11T16:15:47.740Z,99.90
2019-05-11T16:18:18.691Z,97.30
2019-05-11T16:20:49.917Z,97.00
2019-05-11T16:23:17.507Z,96.90
2019-05-11T16:25:48.856Z,96.60
2019-05-11T16:28:19.528Z,97.70
2019-05-11T16:30:48.430Z,98.10
2019-05-11T16:33:18.036Z,97.10
2019-05-11T16:35:49.030Z,96.50
2019-05-11T16:38:18.760Z,98.20
2019-05-11T16:40:48.105Z,98.30
2019-05-11T16:43:18.961Z,97.30
2019-05-11T16:45:50.550Z,97.60
2019-05-11T16:48:18.414Z,98.60
2019-05-11T16:51:08.640Z,99.30
2019-05-11T16:53:38.975Z,99.40
2019-05-11T16:56:08.351Z,98.50
2019-05-11T16:58:40.605Z,97.60
2019-05-11T17:01:09.537Z,99.10
2019-05-11T17:03:38.589Z,98.70
2019-05-11T17:06:08.310Z,99.90
2019-05-11T17:08:38.305Z,99.00
2019-05-11T17:11:08.167Z,99.20
2019-05-11T17:13:37.985Z,98.40
2019-05-11T17:16:08.655Z,97.50
2019-05-11T17:18:37.487Z,98.30
2019-05-11T17:21:07.833Z,98.00
2019-05-11T17:23:38.410Z,99.00
2019-05-11T17:26:08.746Z,98.80
2019-05-11T17:28:38.403Z,98.90
2019-05-11T17:31:08.186Z,99.90
2019-05-11T17:33:38.618Z,99.90
2019-05-11T17:36:08.497Z,98.60
2019-05-11T17:38:38.994Z,98.90
2019-05-11T17:41:08.491Z,99.80
2019-05-11T17:43:38.636Z,99.90
2019-05-11T17:46:08.133Z,99.90
2019-05-11T17:48:38.881Z,98.70
2019-05-11T17:51:20.556Z,97.50
2019-05-11T17:53:37.894Z,97.50
2019-05-11T17:56:06.811Z,97.10
2019-05-11T17:58:37.654Z,97.40
2019-05-11T18:01:06.188Z,98.20
2019-05-11T18:03:34.852Z,98.40
2019-05-11T18:06:03.608Z,98.50
2019-05-11T18:08:32.353Z,97.80
2019-05-11T18:11:00.960Z,98.70
2019-05-11T18:13:29.628Z,98.30
2019-05-11T18:15:58.365Z,97.80
2019-05-11T18:18:29.083Z,98.50
2019-05-11T18:20:58.040Z,99.90
2019-05-11T18:23:28.271Z,98.70
2019-05-11T18:25:57.262Z,98.90
2019-05-11T18:28:28.796Z,99.60
2019-05-11T18:30:58.280Z,99.90
2019-05-11T18:33:27.695Z,99.90
2019-05-11T18:35:58.612Z,99.90
2019-05-11T18:38:27.697Z,99.90
2019-05-11T18:40:58.220Z,99.90
2019-05-11T18:43:27.978Z,99.90
2019-05-11T18:45:58.460Z,99.90
2019-05-11T18:48:28.949Z,99.90
2019-05-11T18:50:58.990Z,99.90
2019-05-11T18:53:28.876Z,99.90
2019-05-11T18:55:59.037Z,99.90
2019-05-11T18:58:28.188Z,99.90
2019-05-11T19:00:56.866Z,99.90
2019-05-11T19:03:28.144Z,99.90
2019-05-11T19:05:57.714Z,99.90
2019-05-11T19:08:27.923Z,99.90
2019-05-11T19:10:58.022Z,99.90
2019-05-11T19:13:28.531Z,99.90
2019-05-11T19:15:58.329Z,99.90
2019-05-11T19:18:28.150Z,99.90
2019-05-11T19:20:58.575Z,99.90
2019-05-11T19:23:28.758Z,99.90
2019-05-11T19:25:57.959Z,99.90
2019-05-11T19:28:28.119Z,99.90
2019-05-11T19:30:59.220Z,99.90
2019-05-11T19:33:28.041Z,99.90
2019-05-11T19:35:58.638Z,99.90
2019-05-11T19:38:27.997Z,99.90
2019-05-11T19:40:58.830Z,99.90
2019-05-11T19:43:27.720Z,99.90
2019-05-11T19:45:58.192Z,99.90
2019-05-11T19:48:28.034Z,99.90
2019-05-11T19:51:06.563Z,99.90
2019-05-11T19:53:28.165Z,99.90
2019-05-11T19:55:58.386Z,99.90
2019-05-11T19:58:28.967Z,99.90
2019-05-11T20:00:58.094Z,99.90
2019-05-11T20:03:28.582Z,99.90
2019-05-11T20:05:58.051Z,99.90
2019-05-11T20:08:29.027Z,99.90
2019-05-11T20:10:57.587Z,99.90
2019-05-11T20:13:28.241Z,99.90
2019-05-11T20:15:57.821Z,99.90
2019-05-11T20:18:28.865Z,99.90
2019-05-11T20:20:57.775Z,99.90
2019-05-11T20:23:26.514Z,99.90
2019-05-11T20:25:58.067Z,99.90
2019-05-11T20:28:28.532Z,99.90
2019-05-11T20:30:58.728Z,99.90
2019-05-11T20:33:28.034Z,99.90
2019-05-11T20:35:58.162Z,99.90
2019-05-11T20:38:27.972Z,99.90
2019-05-11T20:40:57.766Z,99.90
2019-05-11T20:43:27.976Z,99.90
2019-05-11T20:45:56.961Z,99.90
2019-05-11T20:48:27.554Z,99.90
2019-05-11T20:50:57.716Z,99.90
2019-05-11T20:53:28.487Z,99.90
2019-05-11T20:55:58.244Z,99.90
2019-05-11T20:58:28.928Z,99.90
2019-05-11T21:00:57.812Z,99.90
2019-05-11T21:03:27.745Z,99.90
2019-05-11T21:05:58.546Z,99.90
2019-05-11T21:08:28.336Z,99.90
2019-05-11T21:10:58.186Z,99.90
2019-05-11T21:13:28.257Z,99.90
2019-05-11T21:15:59.128Z,99.90
2019-05-11T21:18:28.731Z,99.90
2019-05-11T21:20:57.855Z,99.90
2019-05-11T21:23:28.817Z,99.90
2019-05-11T21:25:56.825Z,99.90
2019-05-11T21:28:25.623Z,99.90
2019-05-11T21:30:54.440Z,99.90
2019-05-11T21:33:23.489Z,99.90
2019-05-11T21:35:52.162Z,99.90
2019-05-11T21:38:20.963Z,99.90
2019-05-11T21:40:49.799Z,99.90
2019-05-11T21:43:18.890Z,99.90
2019-05-11T21:45:47.645Z,99.90
2019-05-11T21:48:16.329Z,99.90
2019-05-11T21:50:44.938Z,99.90
2019-05-11T21:53:13.860Z,99.90
2019-05-11T21:55:42.704Z,99.90
2019-05-11T21:58:11.559Z,99.90
2019-05-11T22:00:40.449Z,99.90
2019-05-11T22:03:10.364Z,99.90
2019-05-11T22:05:39.544Z,99.90
2019-05-11T22:08:08.686Z,99.90
2019-05-11T22:10:38.558Z,99.90
2019-05-11T22:13:07.633Z,99.90
2019-05-11T22:15:38.547Z,99.90
2019-05-11T22:18:07.960Z,99.90
2019-05-11T22:20:38.002Z,99.90
2019-05-11T22:23:08.469Z,99.90
2019-05-11T22:25:38.229Z,99.90
2019-05-11T22:28:08.520Z,99.90
2019-05-11T22:30:39.245Z,99.90
2019-05-11T22:33:08.801Z,99.90
2019-05-11T22:35:38.707Z,99.90
2019-05-11T22:38:08.485Z,99.90
2019-05-11T22:40:38.304Z,99.90
2019-05-11T22:43:09.353Z,99.90
2019-05-11T22:45:38.452Z,99.90
2019-05-11T22:48:07.978Z,99.90
2019-05-11T22:50:38.253Z,99.90
2019-05-11T22:53:08.811Z,99.90
2019-05-11T22:55:38.154Z,99.90
2019-05-11T22:58:08.474Z,99.90
2019-05-11T23:00:44.901Z,99.90
2019-05-11T23:03:13.799Z,99.90
2019-05-11T23:05:43.135Z,99.90
2019-05-11T23:08:11.872Z,99.90
2019-05-11T23:10:40.671Z,99.90
2019-05-11T23:13:11.211Z,99.90
2019-05-11T23:15:40.508Z,99.90
2019-05-11T23:18:09.419Z,99.90
2019-05-11T23:20:38.610Z,99.90
2019-05-11T23:23:08.748Z,99.90
2019-05-11T23:25:37.982Z,99.90
2019-05-11T23:28:06.692Z,99.90
2019-05-11T23:30:35.433Z,99.90
2019-05-11T23:33:04.170Z,99.90
2019-05-11T23:35:33.012Z,99.90
2019-05-11T23:38:01.703Z,99.90
2019-05-11T23:40:30.496Z,99.90
2019-05-11T23:42:59.156Z,99.90
2019-05-11T23:45:28.191Z,99.90
2019-05-11T23:47:58.902Z,99.90
2019-05-11T23:50:28.310Z,99.90
2019-05-11T23:53:05.934Z,99.90
2019-05-11T23:55:28.931Z,99.90
2019-05-11T23:57:57.919Z,99.90
